Time;durP1;ratioP1;P1;durP2;ratioP2;P2;SDS_P1;SDS_P2;PMS_P1;PMS_P2;Temp;Humidity;BMP_temperature;BMP_pressure;BME280_temperature;BME280_humidity;BME280_pressure;Samples;Min_cycle;Max_cycle;Signal;HPM_P1;HPM_P2
2023/03/27 00:01:00;;;;;;;18.75;9.02;;;;;;;4.86;100.00;96823.97;3208396;23;20017;-82
2023/03/27 00:02:17;;;;;;;19.05;9.57;;;;;;;4.94;100.00;96829.78;3208349;23;20040;-83
2023/03/27 00:03:33;;;;;;;17.45;9.32;;;;;;;5.07;100.00;96825.03;3208468;23;20523;-82
2023/03/27 00:04:48;;;;;;;20.45;9.45;;;;;;;4.99;100.00;96826.16;3208297;23;20057;-82
2023/03/27 00:06:15;;;;;;;15.55;8.82;;;;;;;5.12;100.00;96824.06;3208398;23;20027;-82
2023/03/27 00:07:34;;;;;;;16.35;9.18;;;;;;;5.13;100.00;96824.00;3208270;23;21029;-82
2023/03/27 00:08:50;;;;;;;16.13;8.75;;;;;;;5.23;100.00;96822.78;3208235;23;20107;-82
2023/03/27 00:10:09;;;;;;;15.75;8.98;;;;;;;5.25;100.00;96827.94;3208522;23;20020;-82
2023/03/27 00:11:25;;;;;;;17.38;8.77;;;;;;;5.26;100.00;96821.84;3208190;23;20391;-82
2023/03/27 00:12:43;;;;;;;21.17;9.57;;;;;;;5.08;100.00;96816.34;3208476;23;20302;-82
2023/03/27 00:13:59;;;;;;;19.55;9.02;;;;;;;4.95;100.00;96823.69;3208357;23;20052;-82
2023/03/27 00:15:16;;;;;;;54.50;12.98;;;;;;;5.00;100.00;96826.13;3208309;23;20048;-82
2023/03/27 00:16:31;;;;;;;23.80;10.68;;;;;;;5.03;100.00;96822.56;3208255;23;20021;-82
2023/03/27 00:17:50;;;;;;;15.15;8.02;;;;;;;5.10;100.00;96816.31;3208363;23;20071;-82
2023/03/27 00:19:05;;;;;;;16.58;9.10;;;;;;;5.32;100.00;96819.03;3208066;23;20025;-82
2023/03/27 00:20:22;;;;;;;15.77;8.68;;;;;;;5.34;100.00;96822.44;3208306;23;20024;-82
2023/03/27 00:21:37;;;;;;;14.23;8.05;;;;;;;5.20;100.00;96819.44;3208357;23;20764;-82
2023/03/27 00:22:54;;;;;;;15.50;8.13;;;;;;;5.11;100.00;96812.81;3207995;23;20063;-82
2023/03/27 00:24:10;;;;;;;18.15;9.25;;;;;;;5.13;100.00;96811.00;3208446;23;20031;-82
2023/03/27 00:25:27;;;;;;;14.30;7.78;;;;;;;5.09;100.00;96815.44;3208300;23;20717;-82
2023/03/27 00:26:43;;;;;;;15.10;7.85;;;;;;;4.99;100.00;96816.66;3208473;23;20348;-82
2023/03/27 00:28:01;;;;;;;14.13;7.60;;;;;;;5.04;100.00;96808.75;3209544;23;20016;-82
2023/03/27 00:29:17;;;;;;;14.43;8.05;;;;;;;5.11;100.00;96814.56;3208067;23;20039;-82
2023/03/27 00:30:34;;;;;;;13.30;6.85;;;;;;;5.09;100.00;96806.84;3208220;23;20020;-82
2023/03/27 00:31:49;;;;;;;12.85;6.93;;;;;;;5.02;100.00;96811.38;3208379;23;20028;-82
2023/03/27 00:33:07;;;;;;;10.65;6.63;;;;;;;4.53;100.00;96813.75;3208712;23;20021;-82
2023/03/27 00:34:23;;;;;;;11.38;6.65;;;;;;;4.68;100.00;96812.44;3208060;23;20356;-82
2023/03/27 00:35:44;;;;;;;15.13;7.20;;;;;;;4.45;100.00;96811.38;3222886;23;20020;-82
2023/03/27 00:37:03;;;;;;;12.15;7.00;;;;;;;4.77;100.00;96808.72;3216127;23;20020;-82
2023/03/27 00:38:19;;;;;;;12.90;6.60;;;;;;;4.97;100.00;96804.63;3208013;23;20040;-82
2023/03/27 00:39:35;;;;;;;11.23;6.03;;;;;;;4.62;100.00;96800.50;3208496;23;20036;-82
2023/03/27 00:40:53;;;;;;;13.27;6.20;;;;;;;4.73;100.00;96801.91;3207689;23;20467;-82
2023/03/27 00:42:12;;;;;;;11.43;5.72;;;;;;;4.83;100.00;96794.72;3208894;23;20409;-82
2023/03/27 00:43:34;;;;;;;11.05;5.97;;;;;;;4.28;100.00;96804.09;3208100;23;20031;-82
2023/03/27 00:44:50;;;;;;;10.90;6.28;;;;;;;4.29;100.00;96799.78;3208312;23;20119;-84
2023/03/27 00:46:26;;;;;;;10.90;5.95;;;;;;;4.28;100.00;96798.09;3208125;23;20083;-82
2023/03/27 00:47:43;;;;;;;12.73;6.47;;;;;;;4.35;100.00;96795.25;3208178;23;20036;-82
2023/03/27 00:49:04;;;;;;;14.32;6.30;;;;;;;4.47;100.00;96795.75;3207985;23;20385;-82
2023/03/27 00:50:26;;;;;;;13.98;6.88;;;;;;;4.83;100.00;96797.31;3208362;23;20020;-82
2023/03/27 00:51:45;;;;;;;14.40;6.95;;;;;;;4.37;100.00;96793.47;3208405;23;20078;-82
2023/03/27 00:53:12;;;;;;;16.45;6.07;;;;;;;4.46;100.00;96800.13;3208280;23;20044;-82
2023/03/27 00:54:33;;;;;;;12.18;6.50;;;;;;;4.58;100.00;96800.66;3208454;23;20020;-82
2023/03/27 00:55:51;;;;;;;13.60;6.50;;;;;;;4.55;100.00;96800.75;3208069;23;20028;-82
2023/03/27 00:57:13;;;;;;;11.43;6.85;;;;;;;4.76;100.00;96804.44;3208249;23;20103;-82
2023/03/27 00:58:38;;;;;;;14.93;7.07;;;;;;;4.87;100.00;96804.06;3208384;23;20463;-82
2023/03/27 00:59:56;;;;;;;12.50;6.47;;;;;;;4.53;100.00;96800.78;3208375;23;20024;-82
2023/03/27 01:01:14;;;;;;;13.30;7.07;;;;;;;4.69;100.00;96800.31;3208090;23;20028;-81
2023/03/27 01:02:29;;;;;;;16.75;7.65;;;;;;;4.56;100.00;96797.25;3207965;23;20059;-82
2023/03/27 01:03:48;;;;;;;18.52;8.98;;;;;;;4.36;100.00;96802.16;3208201;23;20531;-83
2023/03/27 01:05:05;;;;;;;23.92;9.60;;;;;;;4.59;100.00;96805.78;3207998;23;20044;-82
2023/03/27 01:06:21;;;;;;;17.52;9.07;;;;;;;4.78;100.00;96802.63;3208045;23;20024;-82
2023/03/27 01:07:39;;;;;;;13.68;7.30;;;;;;;4.71;100.00;96804.56;3208287;23;20395;-81
2023/03/27 01:08:55;;;;;;;11.05;6.47;;;;;;;4.87;100.00;96804.06;3207947;23;20024;-82
2023/03/27 01:10:12;;;;;;;11.10;6.18;;;;;;;4.85;100.00;96806.72;3208789;23;20054;-82
2023/03/27 01:12:10;;;;;;;10.73;5.80;;;;;;;4.90;100.00;96810.03;3208434;23;20049;-81
2023/03/27 01:13:32;;;;;;;9.93;5.47;;;;;;;5.02;100.00;96803.59;3208891;23;20521;-82
2023/03/27 01:15:19;;;;;;;12.70;6.30;;;;;;;5.11;100.00;96807.63;3208415;23;20031;-82
2023/03/27 01:17:06;;;;;;;10.82;5.68;;;;;;;5.15;100.00;96805.78;3208010;23;20051;-82
2023/03/27 01:19:03;;;;;;;10.30;5.78;;;;;;;5.17;100.00;96806.59;3208012;23;20078;-82
2023/03/27 01:20:41;;;;;;;10.80;5.65;;;;;;;5.04;100.00;96803.56;3207621;23;20021;-81
2023/03/27 01:22:06;;;;;;;12.52;5.93;;;;;;;5.25;100.00;96814.13;3208600;23;20025;-82
2023/03/27 01:23:40;;;;;;;11.63;5.80;;;;;;;5.27;100.00;96818.38;3208939;23;20150;-82
2023/03/27 01:25:33;;;;;;;13.05;5.80;;;;;;;5.26;100.00;96805.44;3209226;23;20025;-82
2023/03/27 01:26:56;;;;;;;10.65;5.32;;;;;;;5.05;100.00;96807.84;3208131;23;20103;-81
2023/03/27 01:28:36;;;;;;;9.15;4.90;;;;;;;4.94;100.00;96814.22;3208151;23;20024;-82
2023/03/27 01:29:59;;;;;;;8.80;5.07;;;;;;;4.97;100.00;96815.88;3208108;23;20028;-82
2023/03/27 01:31:53;;;;;;;12.30;5.43;;;;;;;5.00;100.00;96809.72;3208346;23;20024;-82
2023/03/27 01:33:41;;;;;;;9.57;5.22;;;;;;;5.34;100.00;96817.25;3208139;23;20793;-82
2023/03/27 01:35:21;;;;;;;10.63;5.47;;;;;;;5.40;100.00;96817.97;3208725;23;20701;-83
2023/03/27 01:37:13;;;;;;;12.45;6.30;;;;;;;5.42;100.00;96814.38;3208541;23;20024;-82
2023/03/27 01:39:23;;;;;;;10.18;5.38;;;;;;;5.35;100.00;96815.50;3207958;23;20054;-82
2023/03/27 01:40:45;;;;;;;10.80;5.70;;;;;;;5.53;100.00;96813.19;3157446;23;20520;-82
2023/03/27 01:42:05;;;;;;;10.52;6.07;;;;;;;5.57;100.00;96813.03;3160369;23;20018;-82
2023/03/27 01:43:38;;;;;;;10.70;6.15;;;;;;;5.46;100.00;96813.41;3200390;23;20047;-82
2023/03/27 01:45:17;;;;;;;11.85;6.80;;;;;;;5.60;100.00;96817.28;3208047;23;20024;-82
2023/03/27 01:46:40;;;;;;;10.90;6.05;;;;;;;5.45;100.00;96811.72;3190193;23;20032;-82
2023/03/27 01:48:46;;;;;;;12.00;6.45;;;;;;;5.61;100.00;96818.97;3207564;23;20048;-82
2023/03/27 01:50:17;;;;;;;14.13;6.18;;;;;;;5.54;100.00;96814.88;3145126;23;20026;-82
2023/03/27 01:51:37;;;;;;;12.65;6.50;;;;;;;5.56;100.00;96813.06;3144728;23;20291;-82
2023/03/27 01:53:00;;;;;;;11.43;6.60;;;;;;;5.13;100.00;96808.41;3144867;23;20132;-82
2023/03/27 01:54:21;;;;;;;10.40;6.25;;;;;;;4.94;100.00;96816.81;3144923;23;20075;-82
2023/03/27 01:55:43;;;;;;;11.60;6.57;;;;;;;5.28;100.00;96807.09;3144732;23;20061;-82
2023/03/27 01:57:26;;;;;;;12.20;6.93;;;;;;;4.83;100.00;96812.88;3144886;23;20070;-82
2023/03/27 01:58:46;;;;;;;12.60;6.40;;;;;;;4.88;100.00;96814.38;3145195;23;20616;-82
2023/03/27 02:00:12;;;;;;;12.13;5.97;;;;;;;5.44;100.00;96815.19;3145340;23;20106;-82
2023/03/27 02:01:36;;;;;;;11.82;6.28;;;;;;;5.55;100.00;96819.16;3144740;23;20026;-82
2023/03/27 02:02:57;;;;;;;12.85;7.18;;;;;;;5.66;100.00;96819.66;3144708;23;20033;-82
2023/03/27 02:04:18;;;;;;;13.55;7.20;;;;;;;5.72;100.00;96816.84;3144872;23;20026;-82
2023/03/27 02:05:39;;;;;;;10.80;5.93;;;;;;;5.62;100.00;96823.28;3145036;23;20553;-83
2023/03/27 02:06:59;;;;;;;12.00;6.90;;;;;;;5.80;100.00;96817.44;3145088;23;20174;-83
2023/03/27 02:08:32;;;;;;;11.15;5.68;;;;;;;5.72;100.00;96816.84;3145196;23;20030;-82
2023/03/27 02:09:53;;;;;;;12.15;6.55;;;;;;;5.86;100.00;96818.97;3145031;23;20426;-82
2023/03/27 02:11:08;;;;;;;11.95;7.00;;;;;;;5.78;100.00;96816.63;3144999;23;20470;-82
2023/03/27 02:12:31;;;;;;;10.68;6.03;;;;;;;5.82;100.00;96814.78;3144762;23;20026;-83
2023/03/27 02:13:52;;;;;;;12.23;6.85;;;;;;;5.70;100.00;96817.81;3144781;23;21080;-82
2023/03/27 02:15:20;;;;;;;13.77;6.72;;;;;;;5.80;100.00;96817.44;3145237;23;20702;-82
2023/03/27 02:16:41;;;;;;;12.90;6.70;;;;;;;5.80;100.00;96822.63;3144827;23;20026;-83
2023/03/27 02:18:03;;;;;;;10.02;6.18;;;;;;;5.70;100.00;96826.44;3144879;23;20033;-83
2023/03/27 02:19:25;;;;;;;11.02;6.45;;;;;;;5.77;100.00;96819.28;3144705;23;20029;-82
2023/03/27 02:20:41;;;;;;;11.80;5.90;;;;;;;5.83;100.00;96818.22;3149166;23;20154;-83
2023/03/27 02:21:56;;;;;;;10.10;5.95;;;;;;;6.00;100.00;96823.66;3207871;23;20131;-82
2023/03/27 02:23:12;;;;;;;10.18;5.18;;;;;;;5.76;100.00;96822.78;3207629;23;20122;-83
2023/03/27 02:24:28;;;;;;;9.52;4.50;;;;;;;5.85;100.00;96832.00;3207702;23;20027;-83
2023/03/27 02:25:44;;;;;;;8.15;4.40;;;;;;;6.00;100.00;96834.03;3208954;23;20351;-82
2023/03/27 02:27:16;;;;;;;6.63;4.22;;;;;;;6.02;100.00;96827.09;3207676;23;20032;-82
2023/03/27 02:28:41;;;;;;;6.25;3.72;;;;;;;6.26;100.00;96834.88;3208669;23;20452;-81
2023/03/27 02:30:28;;;;;;;6.70;4.40;;;;;;;6.23;100.00;96829.81;3207661;23;20455;-81
2023/03/27 02:31:47;;;;;;;9.48;4.57;;;;;;;6.20;100.00;96832.53;3199042;23;20499;-81
2023/03/27 02:33:16;;;;;;;12.15;6.38;;;;;;;6.07;100.00;96834.72;3208102;23;20031;-81
2023/03/27 02:34:48;;;;;;;10.63;6.03;;;;;;;6.12;100.00;96831.94;3207970;23;20079;-81
2023/03/27 02:36:36;;;;;;;14.43;7.30;;;;;;;5.96;100.00;96836.84;3207907;23;20104;-81
2023/03/27 02:38:11;;;;;;;13.57;7.05;;;;;;;5.96;100.00;96837.66;3207728;23;20429;-81
2023/03/27 02:39:52;;;;;;;14.55;8.02;;;;;;;5.90;100.00;96849.13;3207922;23;20385;-82
2023/03/27 02:41:25;;;;;;;18.42;8.73;;;;;;;6.25;100.00;96854.00;3207732;23;20150;-82
2023/03/27 02:43:03;;;;;;;16.05;8.52;;;;;;;6.21;100.00;96844.63;3207883;23;20025;-82
2023/03/27 02:44:58;;;;;;;13.18;6.78;;;;;;;6.18;100.00;96853.38;3207731;23;20411;-81
2023/03/27 02:46:22;;;;;;;11.82;5.53;;;;;;;5.96;100.00;96858.44;3207526;23;20040;-82
2023/03/27 02:47:44;;;;;;;10.93;5.78;;;;;;;5.93;100.00;96859.38;3207683;23;20534;-82
2023/03/27 02:49:06;;;;;;;5.93;3.72;;;;;;;6.00;100.00;96865.22;3207588;23;20119;-81
2023/03/27 02:50:33;;;;;;;4.95;2.97;;;;;;;6.20;100.00;96861.94;3207718;23;20031;-81
2023/03/27 02:51:54;;;;;;;3.92;2.33;;;;;;;5.98;100.00;96869.63;3207587;23;20052;-81
2023/03/27 02:53:15;;;;;;;3.20;1.98;;;;;;;5.90;100.00;96871.66;3207672;23;20024;-81
2023/03/27 02:54:35;;;;;;;3.67;2.47;;;;;;;5.96;100.00;96868.84;3207601;23;20024;-81
2023/03/27 02:55:58;;;;;;;5.50;1.98;;;;;;;5.94;100.00;96876.69;3207602;23;20042;-81
2023/03/27 02:57:19;;;;;;;3.42;2.30;;;;;;;6.08;100.00;96873.63;3207533;23;20043;-80
2023/03/27 02:58:57;;;;;;;4.90;2.30;;;;;;;6.13;100.00;96870.03;3207671;23;20540;-81
2023/03/27 03:00:33;;;;;;;2.70;1.95;;;;;;;6.00;100.00;96872.19;3207558;23;20029;-81
2023/03/27 03:01:48;;;;;;;4.00;2.70;;;;;;;5.94;100.00;96879.31;3207634;23;20031;-81
2023/03/27 03:03:43;;;;;;;3.10;1.77;;;;;;;5.97;100.00;96880.91;3207476;23;20368;-81
2023/03/27 03:05:04;;;;;;;2.22;1.55;;;;;;;5.91;100.00;96871.59;3207646;23;20017;-81
2023/03/27 03:06:28;;;;;;;4.32;2.33;;;;;;;6.28;100.00;96885.06;3207519;23;20025;-80
2023/03/27 03:07:45;;;;;;;4.00;1.95;;;;;;;6.08;100.00;96881.44;3207540;23;20027;-81
2023/03/27 03:09:05;;;;;;;3.85;2.13;;;;;;;6.06;100.00;96887.56;3207659;23;20471;-80
2023/03/27 03:10:20;;;;;;;3.58;2.25;;;;;;;5.89;100.00;96888.16;3207867;23;20052;-81
2023/03/27 03:11:45;;;;;;;4.35;2.00;;;;;;;6.14;100.00;96893.38;3207543;23;20436;-80
2023/03/27 03:13:00;;;;;;;5.50;2.50;;;;;;;6.03;100.00;96898.09;3207588;23;20016;-81
2023/03/27 03:14:27;;;;;;;5.55;2.60;;;;;;;5.93;100.00;96895.75;3207497;23;20024;-80
2023/03/27 03:15:44;;;;;;;3.08;1.55;;;;;;;6.00;100.00;96893.78;3208428;23;20052;-81
2023/03/27 03:17:00;;;;;;;3.22;1.98;;;;;;;5.96;100.00;96905.19;3208547;23;20023;-81
2023/03/27 03:18:16;;;;;;;3.20;2.20;;;;;;;6.06;100.00;96896.22;3208668;23;20187;-81
2023/03/27 03:19:31;;;;;;;5.55;3.17;;;;;;;6.40;100.00;96904.59;3208743;23;20025;-80
2023/03/27 03:20:47;;;;;;;3.78;2.35;;;;;;;6.11;100.00;96903.88;3208978;23;20024;-81
2023/03/27 03:22:03;;;;;;;4.47;2.25;;;;;;;6.30;100.00;96900.63;3208627;23;20461;-81
2023/03/27 03:23:23;;;;;;;4.78;2.72;;;;;;;6.33;100.00;96903.09;3208455;23;20099;-81
2023/03/27 03:24:40;;;;;;;3.67;2.42;;;;;;;6.62;100.00;96909.00;3208914;23;20021;-81
2023/03/27 03:25:56;;;;;;;4.18;2.72;;;;;;;6.58;100.00;96910.88;3208263;23;20580;-81
2023/03/27 03:27:13;;;;;;;3.60;2.70;;;;;;;6.68;100.00;96910.53;3209002;23;20047;-81
2023/03/27 03:28:28;;;;;;;3.92;2.70;;;;;;;6.49;100.00;96913.81;3208511;23;20125;-81
2023/03/27 03:29:45;;;;;;;3.60;2.90;;;;;;;6.54;100.00;96916.25;3208848;23;20507;-81
2023/03/27 03:31:04;;;;;;;4.78;2.90;;;;;;;6.48;100.00;96915.53;3208204;23;20028;-81
2023/03/27 03:32:19;;;;;;;4.18;3.17;;;;;;;6.52;100.00;96916.28;3208629;23;20479;-81
2023/03/27 03:33:36;;;;;;;2.95;1.83;;;;;;;6.06;100.00;96924.81;3208567;23;20021;-81
2023/03/27 03:34:52;;;;;;;4.30;2.67;;;;;;;6.41;100.00;96928.81;3208622;23;20448;-80
2023/03/27 03:36:08;;;;;;;2.63;1.73;;;;;;;6.21;100.00;96930.38;3208422;23;20332;-81
2023/03/27 03:37:27;;;;;;;3.17;2.13;;;;;;;6.36;100.00;96934.19;3208558;23;20027;-81
2023/03/27 03:38:43;;;;;;;4.82;2.80;;;;;;;6.67;100.00;96937.44;3208438;23;20048;-81
2023/03/27 03:39:58;;;;;;;4.47;2.67;;;;;;;6.62;100.00;96941.06;3208716;23;20021;-81
2023/03/27 03:41:14;;;;;;;4.95;2.90;;;;;;;6.61;100.00;96943.69;3208213;23;20284;-81
2023/03/27 03:42:29;;;;;;;3.40;1.77;;;;;;;5.97;100.00;96953.66;3207140;23;20108;-81
2023/03/27 03:43:45;;;;;;;2.00;1.17;;;;;;;6.09;100.00;96955.03;3192128;23;20518;-81
2023/03/27 03:45:00;;;;;;;0.95;0.80;;;;;;;5.62;100.00;96963.47;3198835;23;20021;-81
2023/03/27 03:46:16;;;;;;;1.35;1.02;;;;;;;5.77;100.00;96962.97;3208431;23;20021;-81
2023/03/27 03:47:32;;;;;;;2.45;1.40;;;;;;;5.95;100.00;96960.66;3208337;23;20405;-82
2023/03/27 03:48:47;;;;;;;1.83;1.23;;;;;;;5.84;100.00;96963.63;3209683;23;20746;-82
2023/03/27 03:50:03;;;;;;;1.90;1.15;;;;;;;5.67;100.00;96969.34;3208537;23;20078;-82
2023/03/27 03:51:19;;;;;;;2.10;1.30;;;;;;;5.85;100.00;96970.50;3208482;23;20024;-83
2023/03/27 03:52:34;;;;;;;2.72;1.20;;;;;;;6.05;100.00;96972.47;3208782;23;20403;-84
2023/03/27 03:53:50;;;;;;;1.65;1.27;;;;;;;5.97;100.00;96990.03;3208681;23;20027;-83
2023/03/27 03:55:08;;;;;;;2.00;1.25;;;;;;;5.75;100.00;96990.75;3208377;23;20028;-82
2023/03/27 03:56:26;;;;;;;2.42;1.40;;;;;;;5.76;100.00;97015.81;3208566;23;20021;-82
2023/03/27 03:57:48;;;;;;;1.60;1.05;;;;;;;5.57;100.00;97038.03;3208569;23;20103;-83
2023/03/27 03:59:04;;;;;;;1.50;1.10;;;;;;;4.69;100.00;97049.19;3208603;23;20031;-81
2023/03/27 04:00:21;;;;;;;1.63;0.98;;;;;;;4.68;100.00;97034.53;3208481;23;20024;-82
2023/03/27 04:01:39;;;;;;;1.35;0.98;;;;;;;4.36;100.00;97029.28;3208520;23;20025;-82
2023/03/27 04:02:55;;;;;;;1.48;1.05;;;;;;;4.24;100.00;97058.97;3208583;23;20547;-83
2023/03/27 04:04:11;;;;;;;1.35;0.90;;;;;;;4.26;100.00;97045.97;3208481;23;20451;-81
2023/03/27 04:05:27;;;;;;;1.80;1.25;;;;;;;4.35;100.00;97050.91;3208530;23;20079;-82
2023/03/27 04:06:43;;;;;;;1.27;1.08;;;;;;;4.09;100.00;97058.47;3208639;23;20020;-83
2023/03/27 04:07:59;;;;;;;1.20;1.02;;;;;;;3.97;100.00;97058.75;3196295;23;20024;-83
2023/03/27 04:09:14;;;;;;;1.70;1.30;;;;;;;4.01;100.00;97062.13;3208494;23;20055;-81
2023/03/27 04:10:30;;;;;;;3.05;1.40;;;;;;;3.86;100.00;97077.13;3208443;23;20020;-82
2023/03/27 04:11:46;;;;;;;1.30;0.90;;;;;;;3.74;100.00;97078.25;3208258;23;20031;-82
2023/03/27 04:13:02;;;;;;;2.47;1.00;;;;;;;3.92;100.00;97089.09;3208687;23;20466;-83
2023/03/27 04:14:17;;;;;;;1.90;1.20;;;;;;;4.06;100.00;97087.03;3208385;23;20099;-83
2023/03/27 04:15:33;;;;;;;1.88;1.10;;;;;;;4.20;100.00;97088.44;3208574;23;20032;-83
2023/03/27 04:16:49;;;;;;;1.33;1.00;;;;;;;4.13;100.00;97097.22;3208347;23;20452;-83
2023/03/27 04:18:05;;;;;;;0.57;0.57;;;;;;;3.76;100.00;97102.34;3208829;23;20031;-83
2023/03/27 04:19:21;;;;;;;0.63;0.63;;;;;;;3.81;100.00;97095.34;3191827;23;20120;-81
2023/03/27 04:20:37;;;;;;;0.40;0.40;;;;;;;3.69;100.00;97105.97;3198913;23;20107;-83
2023/03/27 04:21:55;;;;;;;0.45;0.45;;;;;;;3.34;100.00;97113.63;3208427;23;20043;-83
2023/03/27 04:23:10;;;;;;;0.45;0.43;;;;;;;3.55;100.00;97108.03;3208626;23;20071;-81
2023/03/27 04:24:25;;;;;;;0.40;0.40;;;;;;;3.53;100.00;97101.16;3208085;23;20021;-81
2023/03/27 04:25:41;;;;;;;0.95;0.73;;;;;;;3.44;100.00;97121.19;3191924;23;20077;-82
2023/03/27 04:26:57;;;;;;;1.00;0.70;;;;;;;3.47;100.00;97116.78;3198396;23;20027;-82
2023/03/27 04:28:16;;;;;;;0.50;0.50;;;;;;;3.18;100.00;97128.56;3208144;23;20095;-81
2023/03/27 04:29:33;;;;;;;1.02;0.60;;;;;;;3.18;100.00;97127.75;3207724;23;20056;-81
2023/03/27 04:30:49;;;;;;;0.55;0.55;;;;;;;3.15;100.00;97133.81;3208176;23;20024;-81
2023/03/27 04:32:04;;;;;;;0.70;0.63;;;;;;;3.10;100.00;97130.47;3208193;23;20051;-81
2023/03/27 04:33:21;;;;;;;0.57;0.50;;;;;;;3.08;100.00;97138.25;3208172;23;20027;-81
2023/03/27 04:34:39;;;;;;;1.02;0.70;;;;;;;2.95;100.00;97140.22;3208274;23;20048;-82
2023/03/27 04:35:54;;;;;;;1.05;0.70;;;;;;;2.89;100.00;97149.81;3208375;23;20024;-81
2023/03/27 04:37:10;;;;;;;0.70;0.70;;;;;;;2.73;100.00;97164.75;3191643;23;20036;-80
2023/03/27 04:38:27;;;;;;;1.08;0.80;;;;;;;2.90;100.00;97149.78;3198226;23;20482;-83
2023/03/27 04:39:43;;;;;;;0.70;0.70;;;;;;;2.91;100.00;97151.47;3208289;23;20108;-81
2023/03/27 04:40:58;;;;;;;0.47;0.47;;;;;;;2.85;100.00;97168.84;3208093;23;20124;-81
2023/03/27 04:42:14;;;;;;;0.95;0.80;;;;;;;2.99;100.00;97173.78;3191747;23;20112;-82
2023/03/27 04:43:30;;;;;;;0.70;0.63;;;;;;;2.83;100.00;97174.06;3198205;23;20024;-80
2023/03/27 04:44:46;;;;;;;1.40;1.15;;;;;;;2.72;100.00;97165.63;3208157;23;20024;-81
2023/03/27 04:46:04;;;;;;;2.42;1.20;;;;;;;2.78;100.00;97196.53;3209097;23;20024;-80
2023/03/27 04:47:20;;;;;;;0.68;0.68;;;;;;;2.86;100.00;97189.50;3207965;23;20452;-80
2023/03/27 04:48:37;;;;;;;2.05;0.90;;;;;;;2.68;100.00;97199.28;3208569;23;20075;-81
2023/03/27 04:49:58;;;;;;;0.77;0.65;;;;;;;2.76;100.00;97198.28;3208296;23;20024;-81
2023/03/27 04:51:14;;;;;;;1.05;0.80;;;;;;;2.72;100.00;97212.97;3208172;23;20352;-82
2023/03/27 04:52:32;;;;;;;1.98;1.00;;;;;;;2.85;100.00;97208.47;3208005;23;20225;-82
2023/03/27 04:53:48;;;;;;;1.00;0.85;;;;;;;2.76;100.00;97218.97;3208860;23;20474;-81
2023/03/27 04:55:04;;;;;;;2.67;1.00;;;;;;;2.87;100.00;97209.31;3208199;23;20059;-82
2023/03/27 04:56:21;;;;;;;1.70;0.80;;;;;;;2.62;100.00;97224.38;3208459;23;20084;-82
2023/03/27 04:57:38;;;;;;;1.77;0.95;;;;;;;2.70;100.00;97237.16;3208265;23;20020;-81
2023/03/27 04:58:54;;;;;;;2.88;1.27;;;;;;;2.50;100.00;97227.97;3208330;23;20093;-81
2023/03/27 05:00:15;;;;;;;2.03;1.13;;;;;;;2.54;100.00;97238.25;3208973;23;20024;-82
2023/03/27 05:01:31;;;;;;;1.60;1.35;;;;;;;2.48;100.00;97243.53;3209084;23;20021;-81
2023/03/27 05:02:47;;;;;;;1.50;1.33;;;;;;;2.53;100.00;97252.03;3208220;23;20044;-80
2023/03/27 05:04:03;;;;;;;1.80;1.00;;;;;;;2.61;100.00;97262.25;3208031;23;20591;-81
2023/03/27 05:05:18;;;;;;;2.63;1.30;;;;;;;2.94;100.00;97252.28;3209429;23;20021;-81
2023/03/27 05:06:34;;;;;;;1.02;0.95;;;;;;;2.69;100.00;97251.81;3207846;23;20021;-80
2023/03/27 05:07:50;;;;;;;2.05;1.10;;;;;;;2.57;100.00;97277.81;3208037;23;20044;-80
2023/03/27 05:09:05;;;;;;;1.60;1.00;;;;;;;2.67;100.00;97263.91;3208114;23;20471;-80
2023/03/27 05:10:21;;;;;;;1.77;1.15;;;;;;;2.79;100.00;97265.44;3207959;23;20044;-81
2023/03/27 05:11:37;;;;;;;1.17;0.93;;;;;;;2.65;100.00;97265.66;3208304;23;20025;-79
2023/03/27 05:12:53;;;;;;;2.28;1.13;;;;;;;2.84;100.00;97279.16;3208097;23;20416;-81
2023/03/27 05:14:08;;;;;;;1.25;1.15;;;;;;;2.63;100.00;97281.19;3208960;23;20449;-80
2023/03/27 05:15:24;;;;;;;1.42;1.10;;;;;;;2.70;100.00;97281.94;3207874;23;20024;-81
2023/03/27 05:16:40;;;;;;;2.55;1.65;;;;;;;2.92;100.00;97287.63;3207900;23;20044;-81
2023/03/27 05:17:55;;;;;;;1.45;1.20;;;;;;;2.73;100.00;97304.31;3207926;23;20342;-81
2023/03/27 05:19:11;;;;;;;1.67;1.00;;;;;;;2.52;100.00;97309.75;3207511;23;20025;-81
2023/03/27 05:20:27;;;;;;;1.35;0.80;;;;;;;2.64;100.00;97292.38;3208341;23;20408;-80
2023/03/27 05:21:42;;;;;;;1.90;1.38;;;;;;;2.54;100.00;97295.09;3191402;23;20473;-79
2023/03/27 05:22:58;;;;;;;1.17;1.00;;;;;;;2.47;100.00;97305.53;3198231;23;20150;-79
2023/03/27 05:24:14;;;;;;;1.83;1.38;;;;;;;2.51;100.00;97302.88;3207583;23;20531;-79
2023/03/27 05:25:31;;;;;;;1.90;1.50;;;;;;;2.40;100.00;97303.03;3207581;23;20095;-80
2023/03/27 05:26:47;;;;;;;2.72;1.58;;;;;;;2.42;100.00;97304.75;3207975;23;20024;-79
2023/03/27 05:28:02;;;;;;;2.25;1.63;;;;;;;2.33;100.00;97313.47;3207705;23;20337;-79
2023/03/27 05:29:18;;;;;;;1.40;1.25;;;;;;;2.34;100.00;97326.34;3207672;23;20025;-79
2023/03/27 05:30:34;;;;;;;3.22;1.50;;;;;;;2.53;100.00;97323.56;3207731;23;20032;-79
2023/03/27 05:31:49;;;;;;;2.55;1.85;;;;;;;2.67;100.00;97326.78;3207686;23;20020;-80
2023/03/27 05:33:06;;;;;;;1.95;1.65;;;;;;;2.61;100.00;97316.53;3207751;23;20108;-79
2023/03/27 05:34:22;;;;;;;1.80;1.17;;;;;;;2.59;100.00;97326.03;3207806;23;20021;-80
2023/03/27 05:35:40;;;;;;;3.78;2.00;;;;;;;2.68;100.00;97333.66;3208011;23;20025;-79
2023/03/27 05:36:56;;;;;;;1.98;1.58;;;;;;;2.56;100.00;97336.41;3207646;23;20040;-79
2023/03/27 05:38:13;;;;;;;3.45;1.77;;;;;;;2.39;100.00;97340.09;3207389;23;20588;-79
2023/03/27 05:39:28;;;;;;;2.70;1.70;;;;;;;2.47;100.00;97341.69;3208032;23;20031;-79
2023/03/27 05:40:44;;;;;;;4.50;2.30;;;;;;;2.40;100.00;97349.53;3207848;23;20502;-79
2023/03/27 05:41:59;;;;;;;4.95;2.03;;;;;;;1.97;100.00;97330.25;3207759;23;20352;-80
2023/03/27 05:43:15;;;;;;;3.08;1.95;;;;;;;2.37;100.00;97349.56;3207839;23;20020;-81
2023/03/27 05:44:31;;;;;;;1.33;1.00;;;;;;;2.32;100.00;97356.53;3208086;23;20044;-81
2023/03/27 05:45:46;;;;;;;2.38;1.83;;;;;;;2.36;100.00;97359.94;3208911;23;20043;-81
2023/03/27 05:47:02;;;;;;;2.38;1.85;;;;;;;2.23;100.00;97347.16;3207519;23;20035;-81
2023/03/27 05:48:18;;;;;;;1.63;1.17;;;;;;;2.10;100.00;97356.81;3207722;23;20024;-81
2023/03/27 05:49:33;;;;;;;4.22;2.20;;;;;;;2.36;100.00;97360.78;3209111;23;20456;-80
2023/03/27 05:50:49;;;;;;;4.57;2.30;;;;;;;2.30;100.00;97360.84;3207767;23;20543;-80
2023/03/27 05:52:05;;;;;;;3.10;1.90;;;;;;;2.25;100.00;97370.41;3207711;23;20025;-81
2023/03/27 05:53:21;;;;;;;2.30;1.83;;;;;;;2.08;100.00;97368.00;3207483;23;20032;-78
2023/03/27 05:54:37;;;;;;;2.90;1.80;;;;;;;1.79;100.00;97374.34;3208318;23;20043;-77
2023/03/27 05:55:52;;;;;;;4.43;1.83;;;;;;;2.35;100.00;97379.72;3207409;23;20020;-78
2023/03/27 05:57:08;;;;;;;3.80;1.88;;;;;;;2.17;100.00;97385.13;3191114;23;20068;-78
2023/03/27 05:58:23;;;;;;;2.85;1.42;;;;;;;2.25;100.00;97388.47;3198565;23;20075;-77
2023/03/27 05:59:39;;;;;;;3.83;1.90;;;;;;;2.48;100.00;97390.78;3207180;23;20031;-78
2023/03/27 06:00:55;;;;;;;3.22;1.95;;;;;;;2.38;100.00;97402.09;3207417;23;20028;-77
2023/03/27 06:02:10;;;;;;;3.90;2.20;;;;;;;2.48;100.00;97400.25;3206973;23;20020;-77
2023/03/27 06:03:29;;;;;;;2.88;2.15;;;;;;;2.48;100.00;97401.13;3207303;23;20669;-78
2023/03/27 06:04:45;;;;;;;3.80;2.17;;;;;;;2.49;100.00;97418.31;3207511;23;20024;-78
2023/03/27 06:06:07;;;;;;;2.70;1.98;;;;;;;2.41;100.00;97404.63;3207476;23;20020;-78
2023/03/27 06:07:23;;;;;;;2.58;1.60;;;;;;;2.30;100.00;97406.47;3207134;23;20475;-77
2023/03/27 06:08:38;;;;;;;3.05;1.73;;;;;;;2.38;100.00;97420.19;3207713;23;20508;-79
2023/03/27 06:09:55;;;;;;;2.13;1.85;;;;;;;1.94;100.00;97432.69;3207771;23;20024;-78
2023/03/27 06:11:13;;;;;;;2.70;2.00;;;;;;;2.35;100.00;97433.97;3207400;23;20124;-79
2023/03/27 06:12:29;;;;;;;3.53;1.80;;;;;;;2.39;100.00;97421.88;3208189;23;20024;-82
2023/03/27 06:13:44;;;;;;;3.67;2.42;;;;;;;2.19;100.00;97455.69;3207441;23;20024;-78
2023/03/27 06:15:00;;;;;;;4.30;2.10;;;;;;;1.94;100.00;97450.75;3207728;23;20024;-79
2023/03/27 06:16:19;;;;;;;5.28;2.47;;;;;;;2.11;100.00;97455.75;3207834;23;20087;-78
2023/03/27 06:17:37;;;;;;;1.77;1.55;;;;;;;2.03;100.00;97439.50;3207482;23;20024;-78